createdAt,value
2023-09-06T00:05:08.856Z,24.4
2023-09-06T00:11:01.226Z,24.5
2023-09-06T00:16:53.779Z,24.5
2023-09-06T00:22:46.328Z,24.5
2023-09-06T00:28:38.608Z,24.4
2023-09-06T00:34:31.392Z,24.5
2023-09-06T00:40:24.258Z,24.4
2023-09-06T00:46:16.355Z,24.4
2023-09-06T00:52:08.297Z,24.5
2023-09-06T00:57:59.480Z,24.4
2023-09-06T01:03:53.570Z,24.4
2023-09-06T01:09:44.893Z,24.4
2023-09-06T01:15:36.255Z,24.4
2023-09-06T01:21:29.502Z,24.4
2023-09-06T01:27:21.961Z,24.4
2023-09-06T01:33:15.453Z,24.4
2023-09-06T01:39:07.586Z,24.4
2023-09-06T01:44:59.456Z,24.4
2023-09-06T01:50:52.055Z,24.3
2023-09-06T01:56:43.936Z,24.4
2023-09-06T02:02:05.445Z,24.4
2023-09-06T02:07:58.039Z,24.3
2023-09-06T02:13:49.954Z,24.3
2023-09-06T02:19:27.712Z,24.4
2023-09-06T02:25:19.462Z,24.4
2023-09-06T02:31:11.097Z,24.4
2023-09-06T02:37:02.890Z,24.4
2023-09-06T02:42:55.737Z,24.4
2023-09-06T02:48:48.199Z,24.4
2023-09-06T02:54:40.840Z,24.4
2023-09-06T03:00:33.227Z,24.4
2023-09-06T03:06:25.716Z,24.4
2023-09-06T03:12:17.635Z,24.4
2023-09-06T03:18:12.049Z,24.4
2023-09-06T03:24:03.810Z,24.4
2023-09-06T03:29:56.095Z,24.4
2023-09-06T03:35:48.791Z,24.4
2023-09-06T03:41:42.021Z,24.4
2023-09-06T03:47:34.088Z,24.4
2023-09-06T03:53:12.369Z,24.4
2023-09-06T03:59:04.855Z,24.4
2023-09-06T04:04:59.059Z,24.4
2023-09-06T04:10:51.743Z,24.5
2023-09-06T04:16:45.834Z,24.4
2023-09-06T04:22:37.800Z,24.4
2023-09-06T04:28:30.490Z,24.4
2023-09-06T04:34:23.219Z,24.4
2023-09-06T04:40:14.317Z,24.4
2023-09-06T04:46:06.709Z,24.4
2023-09-06T04:51:48.150Z,24.4
2023-09-06T04:57:40.605Z,24.3
2023-09-06T05:03:33.456Z,24.4
2023-09-06T05:09:26.119Z,24.3
2023-09-06T05:15:17.872Z,24.3
2023-09-06T05:21:10.937Z,24.3
2023-09-06T05:27:02.357Z,24.3
2023-09-06T05:32:23.035Z,24.3
2023-09-06T05:38:15.425Z,24.3
2023-09-06T05:43:53.742Z,24.3
2023-09-06T05:50:07.938Z,24.3
2023-09-06T05:56:02.046Z,24.3
2023-09-06T06:01:53.866Z,24.2
2023-09-06T06:07:46.234Z,24.2
2023-09-06T06:13:40.815Z,24.2
2023-09-06T06:19:41.094Z,24.3
2023-09-06T06:25:41.469Z,24.3
2023-09-06T06:31:35.144Z,24.3
2023-09-06T06:37:29.735Z,24.3
2023-09-06T06:43:21.824Z,24.3
2023-09-06T06:49:14.968Z,24.3
2023-09-06T06:55:10.931Z,24.3
2023-09-06T07:01:03.117Z,24.3
2023-09-06T07:06:55.831Z,24.3
2023-09-06T07:12:48.185Z,24.3
2023-09-06T07:18:45.010Z,24.3
2023-09-06T07:24:37.464Z,24.3
2023-09-06T07:30:28.810Z,24.3
2023-09-06T07:36:23.402Z,24.4
2023-09-06T07:42:15.813Z,24.3
2023-09-06T07:48:08.160Z,24.3
2023-09-06T07:54:02.340Z,24.3
2023-09-06T07:59:55.296Z,24.3
2023-09-06T08:06:01.711Z,24.3
2023-09-06T08:11:54.721Z,24.3
2023-09-06T08:17:33.995Z,24.3
2023-09-06T08:23:41.147Z,24.3
2023-09-06T08:29:34.023Z,24.3
2023-09-06T08:35:29.339Z,24.3
2023-09-06T08:41:21.341Z,24.3
2023-09-06T08:46:58.441Z,24.3
2023-09-06T08:52:53.158Z,24.3
2023-09-06T08:58:30.441Z,24.3
2023-09-06T09:04:25.923Z,24.3
2023-09-06T09:10:34.640Z,24.4
2023-09-06T09:16:28.306Z,24.4
2023-09-06T09:22:39.051Z,24.5
2023-09-06T09:28:32.114Z,24.5
2023-09-06T09:34:25.268Z,24.6
2023-09-06T09:40:17.626Z,24.5
2023-09-06T09:46:08.343Z,24.6
2023-09-06T09:52:34.153Z,24.6
2023-09-06T09:58:36.207Z,24.6
2023-09-06T10:04:24.052Z,24.6
2023-09-06T10:10:33.347Z,24.7
2023-09-06T10:16:26.420Z,24.7
2023-09-06T10:22:37.742Z,24.7
2023-09-06T10:28:31.695Z,24.8
2023-09-06T10:34:41.700Z,24.7
2023-09-06T10:40:34.208Z,24.8
2023-09-06T10:46:26.112Z,24.8
2023-09-06T10:52:22.257Z,24.8
2023-09-06T10:58:00.517Z,24.8
2023-09-06T11:03:51.951Z,24.8
2023-09-06T11:10:03.054Z,24.8
2023-09-06T11:15:55.846Z,24.7
2023-09-06T11:21:48.882Z,24.8
2023-09-06T11:27:25.329Z,24.8
2023-09-06T11:33:19.377Z,24.7
2023-09-06T11:39:11.107Z,24.6
2023-09-06T11:45:03.052Z,24.7
2023-09-06T11:50:56.448Z,24.7
2023-09-06T11:57:05.254Z,24.6
2023-09-06T12:02:58.126Z,24.6
2023-09-06T12:09:07.000Z,24.6
2023-09-06T12:14:59.927Z,24.7
2023-09-06T12:20:40.058Z,24.6
2023-09-06T12:26:16.863Z,24.6
2023-09-06T12:32:05.435Z,24.6
2023-09-06T12:37:59.727Z,24.5
2023-09-06T12:43:53.952Z,24.6
2023-09-06T12:49:46.657Z,24.5
2023-09-06T12:55:39.012Z,24.6
2023-09-06T13:01:34.901Z,24.5
2023-09-06T13:07:28.052Z,24.6
2023-09-06T13:13:20.663Z,24.5
2023-09-06T13:19:02.142Z,24.5
2023-09-06T13:24:54.073Z,24.5
2023-09-06T13:30:45.763Z,24.4
2023-09-06T13:36:40.216Z,24.4
2023-09-06T13:42:33.771Z,24.4
2023-09-06T13:48:27.867Z,24.4
2023-09-06T13:54:20.615Z,24.4
2023-09-06T14:00:12.569Z,24.4
2023-09-06T14:05:50.985Z,24.4
2023-09-06T14:11:42.878Z,24.4
2023-09-06T14:17:35.071Z,24.4
2023-09-06T14:23:12.581Z,24.4
2023-09-06T14:29:05.444Z,24.4
2023-09-06T14:34:58.662Z,24.4
2023-09-06T14:40:50.047Z,24.4
2023-09-06T14:46:27.629Z,24.4
2023-09-06T14:52:20.496Z,24.4
2023-09-06T14:58:16.990Z,24.3
2023-09-06T15:03:57.195Z,24.4
2023-09-06T15:10:10.785Z,24.3
2023-09-06T15:15:46.422Z,24.3
2023-09-06T15:21:39.164Z,24.3
2023-09-06T15:27:42.388Z,24.3
2023-09-06T15:33:34.497Z,24.3
2023-09-06T15:39:25.872Z,24.3
2023-09-06T15:45:17.228Z,24.3
2023-09-06T15:51:09.101Z,24.3
2023-09-06T15:57:01.763Z,24.2
2023-09-06T16:03:12.193Z,24.2
2023-09-06T16:09:06.390Z,24.2
2023-09-06T16:15:01.634Z,24.1
2023-09-06T16:20:53.931Z,24.1
2023-09-06T16:26:47.575Z,24.1
2023-09-06T16:32:40.936Z,24.1
2023-09-06T16:38:34.980Z,24.1
2023-09-06T16:44:26.418Z,24.1
2023-09-06T16:50:20.897Z,24.1
2023-09-06T16:56:13.374Z,24.1
2023-09-06T17:02:05.969Z,24.1
2023-09-06T17:07:58.510Z,24.1
2023-09-06T17:13:49.250Z,24.1
2023-09-06T17:19:43.723Z,24.1
2023-09-06T17:25:46.275Z,24.1
2023-09-06T17:31:36.858Z,24.2
2023-09-06T17:37:28.975Z,24.2
2023-09-06T17:43:04.903Z,24.2
2023-09-06T17:48:57.210Z,24.2
2023-09-06T17:54:50.455Z,24.2
2023-09-06T18:00:44.864Z,24.2
2023-09-06T18:06:41.451Z,24.3
2023-09-06T18:12:33.577Z,24.3
2023-09-06T18:18:25.823Z,24.3
2023-09-06T18:24:17.167Z,24.3
2023-09-06T18:30:26.155Z,24.3
2023-09-06T18:36:03.355Z,24.3
2023-09-06T18:41:38.794Z,24.4
2023-09-06T18:47:16.307Z,24.4
2023-09-06T18:53:09.141Z,24.3
2023-09-06T18:59:12.357Z,24.3
2023-09-06T19:05:07.470Z,24.4
2023-09-06T19:10:59.922Z,24.4
2023-09-06T19:16:51.323Z,24.4
2023-09-06T19:22:44.948Z,24.4
2023-09-06T19:28:37.704Z,24.4
2023-09-06T19:34:34.193Z,24.4
2023-09-06T19:40:26.395Z,24.4
2023-09-06T19:46:02.699Z,24.4
2023-09-06T19:52:12.370Z,24.4
2023-09-06T19:58:04.003Z,24.4
2023-09-06T20:03:57.474Z,24.4
2023-09-06T20:09:35.788Z,24.4
2023-09-06T20:15:12.936Z,24.4
2023-09-06T20:21:06.175Z,24.4
2023-09-06T20:26:57.217Z,24.4
2023-09-06T20:32:49.124Z,24.5
2023-09-06T20:38:41.568Z,24.5
2023-09-06T20:44:33.096Z,24.5
2023-09-06T20:50:25.940Z,24.5
2023-09-06T20:56:17.860Z,24.6
2023-09-06T21:02:09.669Z,24.5
2023-09-06T21:07:49.170Z,24.6
2023-09-06T21:13:25.587Z,24.5
2023-09-06T21:19:03.813Z,24.5
2023-09-06T21:24:55.469Z,24.6
2023-09-06T21:30:57.867Z,24.6
2023-09-06T21:36:49.739Z,24.5
2023-09-06T21:42:40.774Z,24.6
2023-09-06T21:48:49.028Z,24.6
2023-09-06T21:54:39.911Z,24.6
2023-09-06T22:00:47.530Z,24.6
2023-09-06T22:06:41.231Z,24.6
2023-09-06T22:12:32.328Z,24.6
2023-09-06T22:18:24.491Z,24.6
2023-09-06T22:24:16.550Z,24.6
2023-09-06T22:30:08.622Z,24.6
2023-09-06T22:36:01.069Z,24.6
2023-09-06T22:41:37.832Z,24.6
2023-09-06T22:47:31.916Z,24.6
2023-09-06T22:53:37.494Z,24.6
2023-09-06T22:59:29.998Z,24.6
2023-09-06T23:05:26.043Z,24.6
2023-09-06T23:11:02.818Z,24.6
2023-09-06T23:16:39.763Z,24.6
2023-09-06T23:22:32.464Z,24.6
2023-09-06T23:28:09.182Z,24.6
2023-09-06T23:34:02.185Z,24.6
2023-09-06T23:39:55.524Z,24.6
2023-09-06T23:45:31.487Z,24.6
2023-09-06T23:51:09.177Z,24.7
2023-09-06T23:56:58.228Z,24.6
